Anderson, South Dakota
Current Conditions -  °F | °C
As of 8:53 PM on Tuesday 21 Oct 2014 (Local Time) from KHEI Reporting Station
Clear Clear  
Wind Chill: 66°   Ceiling: Unl
Heat Index: 66°   Visibility: 10mi
Dew Point: 44°   Wind: 12mph
Humidity: 45%   Direction: 160°SSE
Pressure: 29.67"   Gusts: NA
Location:  45.2919°N, 102.298°W
Report Text: KHEI 220253Z AUTO 16010KT 10SM CLR 19/07 A2967 RMK AO2 SLP042 T01890067 51006
Loading
Personal Weather Stations






























Interactive Weather Map
Tropical Storm Tracking
New forecast layout! Learn more

10-Day Weather Forecast

Advertisements
Track Severe Weather on mobile